Startpagina
METAR-TAF:

METAR-TAF

Vliegvelden :

Luchthaven Jakoetsk

Jakoetsk, Rusland

breedte: 62-01N, lengte: 129-43E, hoogte: 103 m

Actueel weer

Dit bericht is 35 minuten geleden gemaakt, om 23:00 UTC
Wind 4 kt uit het oostnoordoosten
Temperatuur 19°C
Vochtigheid 83%
Druk 1005 hPa
Zicht 10 km of meer
Verspreide wolken op 5000 ft, Cumulonimbus.

METAR: UEEE 182300Z 07002MPS 9999 SCT050CB 19/16 Q1005 R23L/19//55 NOSIG RMK QFE745

Tijdstip: 08:35 (23:35 UTC)

Verwachting

Dit bericht is 3 uur en het 35 minuten geleden gemaakt, om 20:00 UTC
Verwachting geldig van 18 om 21 UTC tot 20 om 03 UTC
Wind 6 kt uit het noordnoordoosten met uitschieters tot 17 kt
Zicht 10 km of meer
Verspreide wolken op 3000 ft, Cumulonimbus.
Gebroken wolken op 7000 ft
Tijdelijke
van 18 om 21 UTC tot 18 om 24 UTC
Wind 2 kt uit variabele richting
Zicht: 0300 m
op 300 ft
onweer, regen, mist

TAF: UEEE 182000Z 1821/2003 02003G09MPS 9999 SCT030CB BKN070 TEMPO 1821/1824 VRB01MPS 0300 TSRA FG VV003

Waarnemingen en weersverwachtingen van meer dan 4000 vliegvelden (METAR en TAF).

De beschikbare stations zijn de gele en rode punten op de kaart.

Ga met uw muis naar het station om de naam te zien.

Klik dan om waarnemingen en weersverwachtingen te zien.

kaart wijzigen: klik op de groene knoppen met een zwart kruis om in te zoomen, op de groene knop met een streepje om uit te zoomen of op de groene pijlen voor aangrenzende kaarten.


METAR-TAF: